createdAt,value
2019-05-16T00:02:08.069Z,8.41
2019-05-16T00:04:34.428Z,8.36
2019-05-16T00:07:01.472Z,8.39
2019-05-16T00:09:28.815Z,8.42
2019-05-16T00:11:59.030Z,8.28
2019-05-16T00:14:28.044Z,8.16
2019-05-16T00:16:55.009Z,7.91
2019-05-16T00:19:21.885Z,7.83
2019-05-16T00:21:49.210Z,7.63
2019-05-16T00:24:18.522Z,7.69
2019-05-16T00:26:45.345Z,6.78
2019-05-16T00:29:12.139Z,6.82
2019-05-16T00:31:39.432Z,6.79
2019-05-16T00:34:06.376Z,6.67
2019-05-16T00:36:33.293Z,6.57
2019-05-16T00:39:00.047Z,6.54
2019-05-16T00:41:28.337Z,6.69
2019-05-16T00:43:57.619Z,6.47
2019-05-16T00:46:24.067Z,6.23
2019-05-16T00:48:50.825Z,6.43
2019-05-16T00:51:18.490Z,6.43
2019-05-16T00:53:45.813Z,6.69
2019-05-16T00:56:13.816Z,6.84
2019-05-16T00:58:41.388Z,6.66
2019-05-16T01:01:08.774Z,6.53
2019-05-16T01:03:37.687Z,6.57
2019-05-16T01:06:15.829Z,6.31
2019-05-16T01:08:33.876Z,6.14
2019-05-16T01:11:01.113Z,6.16
2019-05-16T01:13:28.368Z,6.21
2019-05-16T01:15:57.799Z,6.17
2019-05-16T01:18:24.784Z,6.11
2019-05-16T01:20:51.938Z,6.13
2019-05-16T01:23:19.104Z,6.07
2019-05-16T01:25:48.351Z,6.11
2019-05-16T01:28:14.972Z,6.20
2019-05-16T01:30:42.180Z,5.93
2019-05-16T01:33:09.191Z,5.96
2019-05-16T01:35:38.376Z,6.13
2019-05-16T01:38:04.900Z,6.19
2019-05-16T01:40:32.008Z,6.10
2019-05-16T01:42:58.878Z,6.21
2019-05-16T01:45:27.669Z,6.24
2019-05-16T01:47:54.488Z,6.36
2019-05-16T01:50:21.866Z,6.34
2019-05-16T01:52:49.077Z,6.28
2019-05-16T01:55:18.476Z,6.18
2019-05-16T01:57:45.085Z,5.77
2019-05-16T02:00:13.868Z,5.70
2019-05-16T02:02:41.936Z,5.76
2019-05-16T02:05:09.148Z,5.75
2019-05-16T02:07:38.693Z,5.67
2019-05-16T02:10:08.564Z,5.77
2019-05-16T02:12:38.402Z,5.74
2019-05-16T02:15:07.871Z,5.98
2019-05-16T02:17:38.513Z,6.13
2019-05-16T02:20:08.694Z,6.25
2019-05-16T02:22:35.970Z,6.14
2019-05-16T02:25:07.641Z,5.98
2019-05-16T02:27:34.635Z,6.14
2019-05-16T02:30:02.030Z,6.25
2019-05-16T02:32:31.301Z,6.25
2019-05-16T02:35:00.914Z,6.31
2019-05-16T02:37:33.425Z,6.13
2019-05-16T02:39:56.326Z,6.37
2019-05-16T02:42:23.753Z,6.22
2019-05-16T02:44:51.262Z,6.33
2019-05-16T02:47:21.045Z,6.10
2019-05-16T02:49:50.315Z,6.21
2019-05-16T02:52:16.461Z,6.20
2019-05-16T02:54:43.273Z,6.26
2019-05-16T02:57:11.302Z,6.34
2019-05-16T02:59:41.636Z,6.25
2019-05-16T03:02:11.172Z,6.07
2019-05-16T03:04:40.112Z,5.80
2019-05-16T03:07:06.784Z,5.73
2019-05-16T03:09:34.931Z,5.66
2019-05-16T03:12:01.845Z,5.75
2019-05-16T03:14:31.630Z,5.74
2019-05-16T03:17:02.781Z,5.78
2019-05-16T03:19:35.014Z,5.89
2019-05-16T03:22:04.826Z,5.92
2019-05-16T03:24:32.794Z,5.95
2019-05-16T03:27:01.584Z,6.03
2019-05-16T03:29:30.879Z,5.93
2019-05-16T03:32:02.546Z,6.00
2019-05-16T03:34:27.006Z,5.90
2019-05-16T03:36:54.951Z,5.67
2019-05-16T03:39:22.044Z,5.50
2019-05-16T03:41:50.695Z,5.45
2019-05-16T03:44:20.804Z,5.50
2019-05-16T03:46:46.844Z,5.53
2019-05-16T03:49:13.897Z,5.52
2019-05-16T03:51:41.798Z,5.45
2019-05-16T03:54:12.045Z,5.48
2019-05-16T03:56:40.559Z,5.56
2019-05-16T03:59:06.223Z,5.70
2019-05-16T04:01:33.002Z,5.79
2019-05-16T04:04:01.634Z,5.85
2019-05-16T04:06:31.121Z,5.85
2019-05-16T04:08:57.487Z,5.79
2019-05-16T04:11:24.630Z,5.78
2019-05-16T04:13:51.369Z,5.94
2019-05-16T04:16:20.734Z,5.97
2019-05-16T04:18:46.843Z,5.96
2019-05-16T04:21:17.432Z,6.06
2019-05-16T04:23:42.643Z,6.07
2019-05-16T04:26:11.327Z,6.02
2019-05-16T04:28:41.346Z,6.02
2019-05-16T04:31:10.688Z,6.13
2019-05-16T04:33:36.142Z,6.21
2019-05-16T04:36:03.093Z,6.25
2019-05-16T04:38:39.577Z,6.36
2019-05-16T04:41:01.433Z,6.32
2019-05-16T04:43:31.332Z,6.31
2019-05-16T04:45:56.472Z,6.40
2019-05-16T04:48:23.362Z,6.49
2019-05-16T04:50:51.644Z,6.53
2019-05-16T04:53:20.751Z,6.37
2019-05-16T04:55:51.187Z,6.37
2019-05-16T04:58:16.675Z,6.37
2019-05-16T05:00:44.991Z,6.35
2019-05-16T05:03:12.159Z,6.21
2019-05-16T05:05:41.401Z,6.26
2019-05-16T05:08:10.652Z,6.35
2019-05-16T05:10:40.456Z,6.61
2019-05-16T05:13:06.299Z,6.58
2019-05-16T05:15:33.417Z,6.53
2019-05-16T05:18:00.742Z,6.55
2019-05-16T05:20:30.435Z,6.67
2019-05-16T05:22:57.457Z,6.79
2019-05-16T05:25:24.328Z,7.00
2019-05-16T05:27:51.247Z,6.96
2019-05-16T05:30:19.762Z,7.15
2019-05-16T05:32:46.766Z,7.22
2019-05-16T05:35:13.942Z,7.26
2019-05-16T05:37:41.580Z,7.40
2019-05-16T05:40:10.579Z,7.49
2019-05-16T05:42:39.882Z,7.63
2019-05-16T05:45:08.100Z,7.77
2019-05-16T05:47:35.001Z,7.87
2019-05-16T05:50:04.862Z,7.84
2019-05-16T05:52:31.641Z,7.93
2019-05-16T05:55:00.711Z,8.43
2019-05-16T05:57:29.859Z,8.41
2019-05-16T05:59:56.026Z,8.34
2019-05-16T06:02:22.819Z,8.41
2019-05-16T06:04:50.291Z,8.61
2019-05-16T06:07:17.373Z,8.76
2019-05-16T06:09:53.468Z,8.84
2019-05-16T06:12:13.410Z,8.83
2019-05-16T06:14:41.858Z,8.91
2019-05-16T06:17:11.528Z,9.00
2019-05-16T06:19:40.233Z,9.11
2019-05-16T06:22:07.029Z,9.16
2019-05-16T06:24:33.807Z,9.19
2019-05-16T06:27:00.994Z,9.20
2019-05-16T06:29:28.056Z,9.20
2019-05-16T06:31:54.828Z,9.19
2019-05-16T06:34:21.600Z,9.23
2019-05-16T06:36:50.701Z,9.25
2019-05-16T06:39:19.779Z,9.22
2019-05-16T06:41:46.134Z,9.26
2019-05-16T06:44:13.318Z,9.31
2019-05-16T06:46:56.438Z,9.29
2019-05-16T06:49:10.345Z,9.27
2019-05-16T06:51:39.618Z,9.34
2019-05-16T06:54:06.260Z,9.41
2019-05-16T06:56:33.107Z,9.44
2019-05-16T06:59:00.858Z,9.51
2019-05-16T07:01:30.218Z,9.48
2019-05-16T07:03:57.223Z,9.53
2019-05-16T07:06:47.448Z,9.55
2019-05-16T07:08:52.868Z,9.59
2019-05-16T07:11:20.143Z,9.62
2019-05-16T07:13:51.708Z,9.66
2019-05-16T07:16:16.254Z,9.78
2019-05-16T07:18:43.365Z,9.88
2019-05-16T07:21:10.859Z,9.90
2019-05-16T07:23:40.574Z,9.97
2019-05-16T07:26:09.691Z,10.08
2019-05-16T07:28:36.295Z,10.25
2019-05-16T07:31:14.865Z,10.39
2019-05-16T07:33:32.347Z,10.68
2019-05-16T07:36:00.371Z,10.77
2019-05-16T07:38:27.498Z,10.74
2019-05-16T07:40:54.280Z,10.79
2019-05-16T07:43:23.519Z,10.97
2019-05-16T07:45:51.266Z,11.06
2019-05-16T07:48:21.452Z,11.10
2019-05-16T07:50:49.890Z,11.07
2019-05-16T07:53:16.456Z,11.01
2019-05-16T07:55:43.768Z,11.07
2019-05-16T07:58:13.446Z,11.08
2019-05-16T08:00:49.549Z,10.98
2019-05-16T08:03:10.517Z,11.05
2019-05-16T08:05:40.971Z,11.24
2019-05-16T08:08:06.871Z,11.15
2019-05-16T08:10:40.661Z,11.19
2019-05-16T08:13:03.607Z,11.36
2019-05-16T08:15:30.728Z,11.45
2019-05-16T08:18:02.887Z,11.48
2019-05-16T08:20:27.259Z,11.62
2019-05-16T08:22:54.117Z,11.78
2019-05-16T08:25:20.876Z,11.91
2019-05-16T08:27:47.742Z,12.00
2019-05-16T08:30:14.973Z,12.14
2019-05-16T08:32:42.515Z,12.18
2019-05-16T08:35:11.170Z,12.24
2019-05-16T08:37:44.109Z,12.32
2019-05-16T08:40:11.433Z,12.39
2019-05-16T08:42:41.706Z,12.51
2019-05-16T08:45:11.993Z,12.57
2019-05-16T08:47:42.423Z,12.67
2019-05-16T08:50:14.087Z,12.68
2019-05-16T08:52:43.003Z,12.64
2019-05-16T08:55:12.350Z,12.68
2019-05-16T08:57:37.229Z,12.71
2019-05-16T09:00:05.828Z,12.79
2019-05-16T09:05:04.986Z,12.85
2019-05-16T09:07:31.845Z,12.97
2019-05-16T09:10:00.264Z,13.07
2019-05-16T09:10:30.921Z,12.77
2019-05-16T09:12:27.919Z,13.09
2019-05-16T09:14:59.096Z,13.37
2019-05-16T09:17:23.867Z,13.72
2019-05-16T09:19:50.618Z,13.80
2019-05-16T09:22:18.037Z,13.51
2019-05-16T09:24:47.833Z,13.26
2019-05-16T09:27:13.850Z,13.39
2019-05-16T09:29:40.628Z,13.58
2019-05-16T09:32:15.901Z,13.40
2019-05-16T09:34:38.069Z,13.56
2019-05-16T09:37:08.218Z,13.91
2019-05-16T09:39:36.934Z,14.16
2019-05-16T09:42:03.819Z,14.41
2019-05-16T09:44:30.762Z,14.68
2019-05-16T09:46:57.928Z,14.87
2019-05-16T09:49:26.127Z,14.87
2019-05-16T09:51:53.304Z,14.88
2019-05-16T09:54:20.275Z,14.75
2019-05-16T09:56:47.721Z,14.66
2019-05-16T09:59:17.033Z,14.56
2019-05-16T10:01:47.754Z,14.43
2019-05-16T10:04:17.275Z,14.50
2019-05-16T10:06:45.779Z,14.42
2019-05-16T10:09:12.571Z,14.34
2019-05-16T10:11:41.626Z,14.30
2019-05-16T10:14:08.534Z,14.14
2019-05-16T10:16:36.658Z,14.32
2019-05-16T10:19:04.461Z,14.62
2019-05-16T10:21:31.741Z,14.95
2019-05-16T10:23:58.627Z,15.40
2019-05-16T10:26:27.731Z,15.64
2019-05-16T10:28:54.639Z,15.60
2019-05-16T10:31:21.445Z,15.59
2019-05-16T10:33:48.318Z,15.65
2019-05-16T10:36:17.167Z,15.93
2019-05-16T10:38:45.421Z,16.14
2019-05-16T10:41:13.919Z,16.21
2019-05-16T10:43:41.177Z,16.35
2019-05-16T10:46:08.237Z,16.58
2019-05-16T10:48:37.383Z,16.85
2019-05-16T10:51:04.107Z,16.93
2019-05-16T10:53:57.521Z,16.98
2019-05-16T10:56:00.338Z,17.07
2019-05-16T10:58:36.663Z,17.14
2019-05-16T11:01:24.229Z,17.01
2019-05-16T11:03:27.619Z,16.93
2019-05-16T11:06:03.083Z,16.59
2019-05-16T11:08:23.661Z,16.43
2019-05-16T11:10:50.512Z,16.37
2019-05-16T11:13:20.390Z,16.59
2019-05-16T11:15:47.230Z,17.01
2019-05-16T11:18:14.125Z,17.48
2019-05-16T11:20:44.609Z,17.97
2019-05-16T11:23:09.653Z,18.09
2019-05-16T11:25:36.802Z,17.93
2019-05-16T11:28:07.047Z,18.12
2019-05-16T11:30:33.834Z,17.96
2019-05-16T11:33:00.877Z,17.51
2019-05-16T11:35:28.132Z,17.09
2019-05-16T11:37:57.112Z,16.90
2019-05-16T11:40:24.165Z,17.42
2019-05-16T11:43:05.516Z,17.52
2019-05-16T11:45:20.520Z,17.35
2019-05-16T11:47:48.073Z,17.42
2019-05-16T11:50:17.776Z,17.31
2019-05-16T11:52:47.688Z,17.14
2019-05-16T11:55:14.860Z,17.25
2019-05-16T11:57:41.928Z,17.51
2019-05-16T12:00:12.350Z,17.80
2019-05-16T12:02:42.878Z,18.32
2019-05-16T12:05:10.316Z,18.61
2019-05-16T12:07:44.084Z,18.24
2019-05-16T12:10:07.723Z,18.20
2019-05-16T12:12:36.922Z,18.19
2019-05-16T12:15:08.659Z,18.21
2019-05-16T12:17:35.548Z,18.64
2019-05-16T12:20:07.564Z,18.88
2019-05-16T12:22:34.147Z,18.51
2019-05-16T12:25:01.215Z,18.34
2019-05-16T12:27:32.487Z,18.41
2019-05-16T12:29:58.995Z,18.21
2019-05-16T12:32:27.698Z,17.72
2019-05-16T12:34:56.785Z,17.44
2019-05-16T12:37:24.106Z,17.32
2019-05-16T12:39:51.081Z,17.36
2019-05-16T12:42:20.855Z,17.41
2019-05-16T12:44:48.299Z,17.48
2019-05-16T12:47:15.076Z,17.36
2019-05-16T12:49:41.975Z,17.74
2019-05-16T12:52:08.750Z,18.12
2019-05-16T12:54:36.996Z,18.21
2019-05-16T12:57:04.761Z,17.82
2019-05-16T12:59:36.399Z,17.44
2019-05-16T13:02:03.560Z,17.34
2019-05-16T13:04:30.694Z,17.58
2019-05-16T13:06:58.111Z,17.95
2019-05-16T13:09:26.579Z,18.05
2019-05-16T13:11:53.819Z,17.81
2019-05-16T13:14:20.912Z,17.82
2019-05-16T13:16:47.817Z,17.84
2019-05-16T13:19:17.953Z,17.99
2019-05-16T13:21:46.887Z,18.05
2019-05-16T13:24:13.025Z,18.02
2019-05-16T13:26:40.217Z,18.00
2019-05-16T13:29:07.384Z,18.09
2019-05-16T13:31:37.578Z,17.95
2019-05-16T13:34:03.269Z,17.71
2019-05-16T13:36:32.219Z,17.52
2019-05-16T13:38:59.524Z,17.77
2019-05-16T13:41:27.342Z,18.48
2019-05-16T13:43:54.662Z,18.63
2019-05-16T13:46:21.437Z,18.42
2019-05-16T13:48:48.317Z,18.49
2019-05-16T13:51:18.739Z,18.61
2019-05-16T13:53:44.086Z,18.77
2019-05-16T13:56:13.367Z,18.93
2019-05-16T13:58:40.155Z,18.73
2019-05-16T14:01:08.078Z,18.29
2019-05-16T14:03:37.380Z,17.98
2019-05-16T14:06:06.991Z,17.44
2019-05-16T14:08:33.288Z,17.41
2019-05-16T14:11:02.090Z,17.24
2019-05-16T14:13:30.141Z,17.38
2019-05-16T14:15:57.411Z,17.51
2019-05-16T14:18:27.101Z,17.40
2019-05-16T14:20:53.169Z,17.37
2019-05-16T14:23:20.074Z,17.32
2019-05-16T14:25:48.583Z,17.27
2019-05-16T14:28:17.268Z,17.19
2019-05-16T14:30:46.670Z,17.21
2019-05-16T14:33:14.241Z,17.24
2019-05-16T14:35:41.558Z,17.21
2019-05-16T14:38:09.179Z,17.21
2019-05-16T14:40:37.306Z,17.27
2019-05-16T14:43:08.180Z,17.24
2019-05-16T14:45:37.407Z,17.29
2019-05-16T14:48:07.723Z,17.27
2019-05-16T14:50:33.821Z,17.14
2019-05-16T14:53:00.937Z,17.05
2019-05-16T14:55:27.941Z,17.05
2019-05-16T14:57:56.696Z,17.09
2019-05-16T15:00:24.205Z,17.07
2019-05-16T15:02:51.102Z,16.99
2019-05-16T15:05:18.309Z,16.81
2019-05-16T15:07:48.095Z,16.78
2019-05-16T15:10:16.516Z,16.81
2019-05-16T15:12:46.557Z,16.92
2019-05-16T15:15:23.443Z,16.98
2019-05-16T15:17:47.212Z,17.13
2019-05-16T15:20:13.803Z,17.24
2019-05-16T15:22:40.592Z,17.35
2019-05-16T15:25:15.239Z,17.37
2019-05-16T15:27:47.905Z,17.32
2019-05-16T15:30:17.324Z,17.39
2019-05-16T15:32:47.700Z,17.29
2019-05-16T15:35:18.092Z,17.37
2019-05-16T15:37:48.133Z,17.66
2019-05-16T15:40:17.768Z,17.80
2019-05-16T15:42:44.063Z,17.94
2019-05-16T15:45:11.809Z,17.78
2019-05-16T15:47:42.182Z,17.71
2019-05-16T15:50:11.533Z,17.57
2019-05-16T15:52:39.405Z,17.44
2019-05-16T15:55:10.055Z,17.43
2019-05-16T15:57:39.100Z,17.32
2019-05-16T16:00:10.745Z,17.33
2019-05-16T16:02:40.297Z,17.30
2019-05-16T16:05:08.977Z,17.07
2019-05-16T16:07:38.030Z,17.07
2019-05-16T16:10:08.551Z,17.07
2019-05-16T16:12:37.479Z,17.04
2019-05-16T16:15:07.647Z,16.98
2019-05-16T16:17:37.702Z,16.85
2019-05-16T16:20:10.506Z,16.63
2019-05-16T16:22:37.737Z,16.45
2019-05-16T16:25:06.800Z,16.56
2019-05-16T16:27:34.103Z,16.62
2019-05-16T16:30:01.039Z,16.71
2019-05-16T16:32:27.954Z,16.68
2019-05-16T16:34:57.510Z,16.62
2019-05-16T16:37:24.602Z,16.59
2019-05-16T16:39:51.341Z,16.63
2019-05-16T16:42:18.246Z,16.66
2019-05-16T16:44:47.178Z,16.62
2019-05-16T16:47:14.071Z,16.58
2019-05-16T16:49:43.176Z,16.49
2019-05-16T16:52:12.103Z,16.41
2019-05-16T16:54:39.161Z,16.38
2019-05-16T16:57:11.505Z,16.38
2019-05-16T16:59:41.753Z,16.34
2019-05-16T17:02:08.660Z,16.29
2019-05-16T17:04:38.893Z,16.25
2019-05-16T17:07:04.835Z,16.20
2019-05-16T17:09:31.679Z,16.17
2019-05-16T17:11:58.473Z,16.17
2019-05-16T17:14:26.356Z,16.14
2019-05-16T17:16:53.470Z,16.16
2019-05-16T17:19:20.495Z,16.15
2019-05-16T17:22:02.193Z,16.07
2019-05-16T17:24:16.863Z,16.10
2019-05-16T17:26:44.036Z,16.09
2019-05-16T17:29:10.950Z,16.12
2019-05-16T17:31:37.722Z,16.04
2019-05-16T17:34:08.310Z,16.02
2019-05-16T17:36:37.213Z,16.02
2019-05-16T17:39:05.207Z,16.02
2019-05-16T17:41:32.107Z,15.96
2019-05-16T17:43:59.228Z,15.91
2019-05-16T17:46:35.827Z,15.88
2019-05-16T17:48:57.061Z,15.81
2019-05-16T17:51:26.123Z,15.83
2019-05-16T17:53:52.820Z,15.81
2019-05-16T17:56:19.955Z,15.77
2019-05-16T17:58:47.122Z,15.79
2019-05-16T18:01:17.209Z,15.72
2019-05-16T18:03:44.669Z,15.62
2019-05-16T18:06:11.616Z,15.62
2019-05-16T18:08:38.758Z,15.66
2019-05-16T18:11:07.216Z,15.58
2019-05-16T18:13:36.911Z,15.57
2019-05-16T18:16:03.979Z,15.63
2019-05-16T18:18:31.275Z,15.65
2019-05-16T18:21:02.035Z,15.57
2019-05-16T18:23:27.623Z,15.43
2019-05-16T18:25:54.749Z,15.32
2019-05-16T18:28:22.456Z,15.29
2019-05-16T18:30:49.983Z,15.29
2019-05-16T18:33:16.855Z,15.30
2019-05-16T18:35:46.622Z,15.25
2019-05-16T18:38:13.887Z,15.21
2019-05-16T18:40:40.842Z,15.11
2019-05-16T18:43:08.581Z,15.16
2019-05-16T18:45:36.575Z,15.10
2019-05-16T18:48:07.492Z,15.08
2019-05-16T18:50:37.261Z,14.96
2019-05-16T18:53:06.518Z,14.87
2019-05-16T18:55:32.978Z,14.77
2019-05-16T18:58:04.842Z,14.72
2019-05-16T19:00:32.287Z,14.75
2019-05-16T19:02:59.444Z,14.76
2019-05-16T19:05:26.600Z,14.81
2019-05-16T19:07:56.255Z,14.75
2019-05-16T19:10:23.153Z,14.73
2019-05-16T19:12:49.965Z,14.71
2019-05-16T19:15:17.991Z,14.65
2019-05-16T19:17:45.226Z,14.60
2019-05-16T19:20:12.538Z,14.57
2019-05-16T19:22:39.704Z,14.54
2019-05-16T19:25:07.918Z,14.43
2019-05-16T19:27:36.999Z,14.39
2019-05-16T19:30:08.175Z,14.39
2019-05-16T19:32:39.081Z,14.30
2019-05-16T19:35:07.127Z,14.38
2019-05-16T19:37:38.248Z,14.39
2019-05-16T19:40:07.402Z,14.31
2019-05-16T19:42:36.811Z,14.22
2019-05-16T19:45:06.546Z,14.18
2019-05-16T19:47:37.651Z,14.17
2019-05-16T19:50:07.111Z,14.11
2019-05-16T19:52:36.389Z,14.15
2019-05-16T19:55:07.354Z,14.11
2019-05-16T19:57:34.322Z,14.13
2019-05-16T20:00:07.043Z,14.11
2019-05-16T20:02:33.933Z,14.05
2019-05-16T20:05:00.830Z,14.14
2019-05-16T20:07:27.585Z,14.08
2019-05-16T20:09:54.346Z,13.91
2019-05-16T20:12:21.120Z,13.83
2019-05-16T20:15:04.481Z,13.83
2019-05-16T20:17:20.320Z,13.84
2019-05-16T20:19:47.158Z,13.98
2019-05-16T20:22:13.926Z,14.09
2019-05-16T20:24:40.698Z,14.13
2019-05-16T20:27:08.071Z,14.13
2019-05-16T20:29:36.724Z,14.13
2019-05-16T20:32:04.040Z,14.12
2019-05-16T20:34:30.783Z,14.09
2019-05-16T20:36:58.010Z,14.10
2019-05-16T20:39:26.671Z,14.02
2019-05-16T20:41:54.053Z,13.90
2019-05-16T20:44:21.182Z,13.78
2019-05-16T20:46:49.753Z,13.68
2019-05-16T20:49:16.902Z,13.64
2019-05-16T20:51:49.793Z,13.65
2019-05-16T20:54:17.532Z,13.51
2019-05-16T20:56:46.430Z,13.46
2019-05-16T20:59:13.037Z,13.34
2019-05-16T21:01:40.094Z,13.34
2019-05-16T21:04:07.122Z,13.31
2019-05-16T21:06:34.158Z,13.29
2019-05-16T21:09:01.168Z,13.21
2019-05-16T21:11:29.877Z,13.19
2019-05-16T21:13:56.961Z,13.15
2019-05-16T21:16:24.088Z,13.09
2019-05-16T21:18:51.214Z,13.04
2019-05-16T21:21:19.331Z,13.01
2019-05-16T21:23:47.001Z,13.10
2019-05-16T21:26:15.573Z,13.11
2019-05-16T21:28:42.514Z,13.09
2019-05-16T21:31:09.290Z,12.97
2019-05-16T21:33:36.718Z,12.91
2019-05-16T21:36:04.170Z,13.00
2019-05-16T21:38:31.481Z,12.93
2019-05-16T21:40:58.555Z,12.86
2019-05-16T21:43:27.091Z,12.88
2019-05-16T21:45:56.535Z,12.87
2019-05-16T21:48:22.911Z,12.88
2019-05-16T21:50:49.901Z,12.88
2019-05-16T21:53:17.748Z,12.80
2019-05-16T21:55:47.323Z,12.77
2019-05-16T21:58:14.794Z,12.59
2019-05-16T22:00:50.171Z,12.32
2019-05-16T22:03:17.698Z,12.29
2019-05-16T22:05:46.558Z,12.34
2019-05-16T22:08:13.688Z,12.32
2019-05-16T22:10:40.554Z,12.25
2019-05-16T22:13:07.923Z,12.19
2019-05-16T22:15:36.728Z,12.22
2019-05-16T22:18:07.123Z,12.19
2019-05-16T22:20:34.931Z,12.26
2019-05-16T22:23:02.139Z,12.12
2019-05-16T22:25:29.435Z,12.01
2019-05-16T22:27:57.570Z,11.98
2019-05-16T22:30:27.042Z,11.96
2019-05-16T22:32:53.737Z,11.87
2019-05-16T22:35:20.924Z,11.80
2019-05-16T22:37:55.434Z,11.97
2019-05-16T22:40:20.169Z,11.91
2019-05-16T22:42:47.539Z,11.82
2019-05-16T22:45:17.558Z,11.76
2019-05-16T22:47:46.646Z,11.68
2019-05-16T22:50:17.407Z,11.59
2019-05-16T22:52:44.485Z,11.40
2019-05-16T22:55:12.269Z,11.31
2019-05-16T22:57:39.545Z,11.22
2019-05-16T23:00:10.665Z,11.17
2019-05-16T23:02:37.818Z,11.34
2019-05-16T23:05:07.168Z,11.32
2019-05-16T23:07:33.916Z,11.36
2019-05-16T23:10:00.761Z,11.41
2019-05-16T23:12:27.643Z,11.30
2019-05-16T23:14:56.805Z,11.26
2019-05-16T23:17:23.706Z,11.05
2019-05-16T23:19:50.576Z,10.90
2019-05-16T23:22:17.552Z,10.80
2019-05-16T23:24:46.379Z,10.85
2019-05-16T23:27:13.828Z,11.01
2019-05-16T23:29:41.264Z,11.00
2019-05-16T23:32:08.255Z,10.97
2019-05-16T23:34:37.312Z,10.95
2019-05-16T23:37:06.331Z,11.05
2019-05-16T23:39:33.117Z,11.08
2019-05-16T23:42:00.089Z,10.94
2019-05-16T23:44:27.255Z,10.93
2019-05-16T23:46:56.207Z,10.85
2019-05-16T23:49:22.806Z,10.70
2019-05-16T23:51:49.588Z,10.71
2019-05-16T23:54:17.210Z,10.74
2019-05-16T23:56:46.574Z,10.58
2019-05-16T23:59:13.556Z,10.50
